Time;durP1;ratioP1;P1;durP2;ratioP2;P2;SDS_P1;SDS_P2;PMS_P1;PMS_P2;Temp;Humidity;BMP_temperature;BMP_pressure;BME280_temperature;BME280_humidity;BME280_pressure;Samples;Min_cycle;Max_cycle;Signal;HPM_P1;HPM_P2
2022/08/31 00:04:57;;;;;;;;;;;18.50;99.90;;;17.58;100.00;95700.19;10477620;28;2340;-69
2022/08/31 00:10:00;;;;;;;;;;;18.50;99.90;;;17.53;100.00;95693.78;10477717;28;2362;-67
2022/08/31 00:15:03;;;;;;;;;;;18.40;99.90;;;17.48;100.00;95693.13;10479086;28;2408;-70
2022/08/31 00:20:06;;;;;;;;;;;18.40;99.90;;;17.37;100.00;95684.50;10479814;28;2406;-68
2022/08/31 00:25:30;;;;;;;;;;;18.30;99.90;;;17.36;100.00;95701.09;10483003;28;2301;-67
2022/08/31 00:30:34;;;;;;;;;;;18.20;99.90;;;17.33;100.00;95704.47;10477206;28;2396;-67
2022/08/31 00:35:36;;;;;;;;;;;18.20;99.90;;;17.34;100.00;95700.63;10480679;28;2074;-68
2022/08/31 00:40:39;;;;;;;;;;;18.20;99.90;;;17.34;100.00;95697.94;10481193;28;2360;-68
2022/08/31 00:45:46;;;;;;;;;;;18.20;99.90;;;17.38;100.00;95696.19;10479669;28;2369;-68
2022/08/31 00:50:49;;;;;;;;;;;18.20;99.90;;;17.39;100.00;95692.34;10476948;28;2379;-68
2022/08/31 00:55:52;;;;;;;;;;;18.20;99.90;;;17.35;100.00;95692.16;10477613;28;2383;-67
2022/08/31 01:00:55;;;;;;;;;;;18.20;99.90;;;17.26;100.00;95694.09;10476514;28;2019;-68
2022/08/31 01:05:58;;;;;;;;;;;18.20;99.90;;;17.23;100.00;95694.69;10480721;28;2349;-66
2022/08/31 01:11:01;;;;;;;;;;;18.10;99.90;;;17.22;100.00;95684.97;10458595;28;2364;-66
2022/08/31 01:16:04;;;;;;;;;;;18.10;99.90;;;17.16;100.00;95689.75;10483800;28;2293;-67
2022/08/31 01:21:06;;;;;;;;;;;18.10;99.90;;;17.19;100.00;95689.13;10475688;28;2289;-68
2022/08/31 01:26:09;;;;;;;;;;;18.00;99.90;;;17.22;100.00;95693.09;10479991;28;2344;-68
2022/08/31 01:31:12;;;;;;;;;;;18.00;99.90;;;17.24;100.00;95697.13;10478488;28;2316;-68
2022/08/31 01:36:15;;;;;;;;;;;18.10;99.90;;;17.14;100.00;95697.41;10484995;28;2024;-68
2022/08/31 01:41:18;;;;;;;;;;;18.10;99.90;;;17.17;100.00;95695.97;10486295;28;2282;-68
2022/08/31 01:46:21;;;;;;;;;;;18.00;99.90;;;17.12;100.00;95690.72;10491629;28;2038;-69
2022/08/31 01:51:24;;;;;;;;;;;18.00;99.90;;;17.08;100.00;95689.75;10484956;28;2294;-69
2022/08/31 01:56:27;;;;;;;;;;;17.90;99.90;;;16.96;100.00;95691.16;10488924;28;2320;-68
2022/08/31 02:01:30;;;;;;;;;;;17.90;99.90;;;16.98;100.00;95685.38;10487035;28;2039;-68
2022/08/31 02:06:36;;;;;;;;;;;17.80;99.90;;;16.92;100.00;95689.38;10482941;28;2266;-67
2022/08/31 02:11:39;;;;;;;;;;;17.70;99.90;;;16.88;100.00;95691.94;10484022;28;2361;-68
2022/08/31 02:16:42;;;;;;;;;;;17.80;99.90;;;16.76;100.00;95686.31;10482884;28;2339;-66
2022/08/31 02:21:50;;;;;;;;;;;17.70;99.90;;;16.76;100.00;95694.44;10485738;28;2277;-68
2022/08/31 02:26:53;;;;;;;;;;;17.60;99.90;;;16.70;100.00;95687.56;10481903;28;2351;-68
2022/08/31 02:31:58;;;;;;;;;;;17.50;99.90;;;16.70;100.00;95682.94;10487465;28;2028;-67
2022/08/31 02:37:01;;;;;;;;;;;17.60;99.90;;;16.63;100.00;95682.56;10482843;28;2290;-67
2022/08/31 02:42:03;;;;;;;;;;;17.50;99.90;;;16.68;100.00;95685.13;10479959;28;2333;-68
2022/08/31 02:47:06;;;;;;;;;;;17.50;99.90;;;16.64;100.00;95691.50;10484271;28;2423;-67
2022/08/31 02:52:09;;;;;;;;;;;17.50;99.90;;;16.64;100.00;95684.16;10483543;28;2023;-68
2022/08/31 02:57:12;;;;;;;;;;;17.50;99.90;;;16.65;100.00;95679.53;10482338;28;2326;-69
2022/08/31 03:02:14;;;;;;;;;;;17.50;99.90;;;16.69;100.00;95686.72;10482693;28;2330;-68
2022/08/31 03:07:18;;;;;;;;;;;17.50;99.90;;;16.71;100.00;95683.72;10483115;28;2352;-69
2022/08/31 03:12:20;;;;;;;;;;;17.60;99.90;;;16.68;100.00;95692.47;10482951;28;2517;-69
2022/08/31 03:17:23;;;;;;;;;;;17.50;99.90;;;16.61;100.00;95684.78;10485722;28;2298;-73
2022/08/31 03:22:26;;;;;;;;;;;17.50;99.90;;;16.64;100.00;95688.78;10480429;28;2382;-75
2022/08/31 03:27:29;;;;;;;;;;;17.50;99.90;;;16.74;100.00;95694.78;10483616;28;2127;-73
2022/08/31 03:32:32;;;;;;;;;;;17.50;99.90;;;16.74;100.00;95694.78;10477695;28;2022;-68
2022/08/31 03:37:36;;;;;;;;;;;17.60;99.90;;;16.70;100.00;95687.56;10463552;28;2338;-67
2022/08/31 03:42:39;;;;;;;;;;;17.50;99.90;;;16.67;100.00;95688.97;10480563;28;2264;-70
2022/08/31 03:47:42;;;;;;;;;;;17.50;99.90;;;16.68;100.00;95687.84;10481519;28;2423;-68
2022/08/31 03:52:47;;;;;;;;;;;17.60;99.90;;;16.67;100.00;95704.47;10482981;28;2356;-68
2022/08/31 03:57:50;;;;;;;;;;;17.50;99.90;;;16.69;100.00;95713.06;10482375;28;2342;-72
2022/08/31 04:02:52;;;;;;;;;;;17.50;99.90;;;16.77;100.00;95714.25;10478516;28;2310;-71
2022/08/31 04:07:55;;;;;;;;;;;17.50;99.90;;;16.84;100.00;95722.72;10483668;28;2301;-71
2022/08/31 04:13:00;;;;;;;;;;;17.60;99.90;;;16.82;100.00;95724.97;10477220;28;2343;-68
2022/08/31 04:18:03;;;;;;;;;;;17.60;99.90;;;16.83;100.00;95726.56;10480925;28;2359;-70
2022/08/31 04:23:06;;;;;;;;;;;17.70;99.90;;;16.82;100.00;95724.97;10480708;28;2451;-66
2022/08/31 04:28:09;;;;;;;;;;;17.60;99.90;;;16.73;100.00;95730.34;10483692;28;2345;-71
2022/08/31 04:33:12;;;;;;;;;;;17.60;99.90;;;16.84;100.00;95722.72;10478666;28;2345;-69
2022/08/31 04:38:14;;;;;;;;;;;17.60;99.90;;;16.74;100.00;95726.53;10487329;28;2450;-69
2022/08/31 04:43:23;;;;;;;;;;;17.60;99.90;;;16.81;100.00;95718.75;10480433;28;2374;-68
2022/08/31 04:48:26;;;;;;;;;;;17.70;99.90;;;17.00;100.00;95724.72;10480754;28;2364;-69
2022/08/31 04:53:29;;;;;;;;;;;17.70;99.90;;;17.23;100.00;95721.88;10479554;28;2229;-67
2022/08/31 04:58:33;;;;;;;;;;;17.80;99.90;;;17.01;100.00;95722.78;10479937;28;2294;-69
2022/08/31 05:03:35;;;;;;;;;;;17.80;99.90;;;17.14;100.00;95727.28;10474380;28;2286;-68
2022/08/31 05:08:38;;;;;;;;;;;17.90;99.90;;;17.23;100.00;95721.88;10488401;28;2062;-68
2022/08/31 05:13:41;;;;;;;;;;;18.00;99.90;;;17.02;100.00;95727.91;10481662;28;2381;-68
2022/08/31 05:18:44;;;;;;;;;;;17.90;99.90;;;17.03;100.00;95725.97;10485208;28;2331;-68
2022/08/31 05:23:47;;;;;;;;;;;17.70;99.90;;;17.11;100.00;95736.06;10488413;28;2276;-68
2022/08/31 05:28:50;;;;;;;;;;;17.90;99.90;;;17.18;100.00;95746.50;10485988;28;2324;-66
2022/08/31 05:33:53;;;;;;;;;;;18.00;99.90;;;17.17;100.00;95745.66;10470841;28;2002;-80
2022/08/31 05:38:57;;;;;;;;;;;17.90;99.90;;;17.12;100.00;95737.69;10487206;28;2344;-77
2022/08/31 05:44:03;;;;;;;;;;;17.90;99.90;;;16.88;100.00;95748.94;10485979;28;2425;-85
2022/08/31 05:49:06;;;;;;;;;;;17.90;99.90;;;16.89;100.00;95745.13;10476992;28;2362;-86
2022/08/31 05:54:09;;;;;;;;;;;17.70;99.90;;;17.12;100.00;95745.03;10484716;28;2235;-84
2022/08/31 05:59:13;;;;;;;;;;;17.80;99.90;;;17.05;100.00;95742.78;10484709;28;1858;-82
2022/08/31 06:04:16;;;;;;;;;;;17.90;99.90;;;16.91;100.00;95742.06;10483508;28;2985;-80
2022/08/31 06:09:19;;;;;;;;;;;17.80;99.90;;;16.78;100.00;95749.22;10481693;28;2441;-79
2022/08/31 06:14:22;;;;;;;;;;;17.70;99.90;;;17.02;100.00;95744.19;10484171;28;2330;-81
2022/08/31 06:19:26;;;;;;;;;;;17.70;99.90;;;17.09;100.00;95749.16;10483037;28;2391;-84
2022/08/31 06:24:29;;;;;;;;;;;17.80;99.90;;;17.19;100.00;95751.59;10477624;28;2089;-78
2022/08/31 06:29:32;;;;;;;;;;;17.90;99.90;;;17.38;100.00;95750.53;10482185;28;2345;-78
2022/08/31 06:34:35;;;;;;;;;;;18.00;99.90;;;17.57;100.00;95748.31;10477795;28;2042;-77
2022/08/31 06:39:37;;;;;;;;;;;18.30;99.90;;;17.65;100.00;95754.84;10472048;28;2379;-75
2022/08/31 06:44:40;;;;;;;;;;;17.80;99.90;;;17.64;100.00;95764.13;10473434;28;2321;-71
2022/08/31 06:49:43;;;;;;;;;;;18.50;99.90;;;17.41;100.00;95774.31;10460060;28;2304;-76
2022/08/31 06:54:46;;;;;;;;;;;18.40;99.90;;;17.40;100.00;95778.16;10475301;28;2361;-76
2022/08/31 06:59:49;;;;;;;;;;;18.40;99.90;;;17.47;100.00;95778.50;10477810;28;2367;-78
2022/08/31 07:04:52;;;;;;;;;;;18.40;99.90;;;17.61;100.00;95776.44;10471386;28;2292;-69
2022/08/31 07:09:54;;;;;;;;;;;18.30;99.90;;;17.64;100.00;95781.25;10472848;28;2484;-71
2022/08/31 07:14:57;;;;;;;;;;;18.40;99.90;;;17.74;100.00;95774.72;10468860;28;2385;-71
2022/08/31 07:20:00;;;;;;;;;;;18.30;99.90;;;17.81;100.00;95786.75;10477786;28;2316;-70
2022/08/31 07:25:03;;;;;;;;;;;18.50;99.90;;;17.91;100.00;95782.09;10475813;28;2294;-70
2022/08/31 07:30:06;;;;;;;;;;;18.60;99.90;;;17.80;100.00;95779.69;10480140;28;2112;-71
2022/08/31 07:35:09;;;;;;;;;;;18.60;99.90;;;17.88;100.00;95780.00;10474394;28;2620;-71
2022/08/31 07:45:32;;;;;;;;;;;18.70;99.90;;;18.10;100.00;95791.53;10474359;28;2439;-72
2022/08/31 07:50:45;;;;;;;;;;;18.70;99.90;;;17.95;100.00;95793.94;10474703;28;2387;-72
2022/08/31 07:55:49;;;;;;;;;;;18.80;99.90;;;18.33;100.00;95792.16;10478452;28;2293;-72
2022/08/31 08:00:52;;;;;;;;;;;18.90;99.90;;;18.71;100.00;95788.75;10479046;28;2350;-71
2022/08/31 08:05:55;;;;;;;;;;;19.10;99.90;;;18.50;100.00;95795.94;10479403;28;2320;-71
2022/08/31 08:10:58;;;;;;;;;;;19.30;99.90;;;18.99;100.00;95808.19;10475413;28;2297;-72
2022/08/31 08:16:01;;;;;;;;;;;19.40;99.90;;;18.62;100.00;95804.25;10480643;28;2438;-72
2022/08/31 08:21:05;;;;;;;;;;;19.50;99.90;;;18.83;100.00;95810.66;10469792;28;2350;-72
2022/08/31 08:26:07;;;;;;;;;;;19.50;99.90;;;19.16;100.00;95813.56;10476737;28;2280;-71
2022/08/31 08:31:14;;;;;;;;;;;19.60;99.90;;;19.23;100.00;95823.97;10470713;28;2621;-72
2022/08/31 08:36:17;;;;;;;;;;;19.80;99.90;;;19.11;100.00;95816.47;10477978;28;2597;-73
2022/08/31 08:41:21;;;;;;;;;;;19.80;99.90;;;19.14;100.00;95823.19;10479087;28;2571;-73
2022/08/31 08:46:24;;;;;;;;;;;19.80;99.90;;;19.18;100.00;95821.41;10485825;28;2384;-73
2022/08/31 08:51:57;;;;;;;;;;;19.90;99.90;;;19.48;100.00;95824.16;10480760;28;2646;-71
2022/08/31 08:57:00;;;;;;;;;;;20.00;99.90;;;19.56;100.00;95821.38;10482923;28;2723;-74
2022/08/31 09:02:03;;;;;;;;;;;20.10;99.90;;;19.42;100.00;95832.53;10494121;28;2614;-70
2022/08/31 09:07:07;;;;;;;;;;;20.10;99.90;;;19.77;100.00;95828.81;10484477;28;2597;-74
2022/08/31 09:12:10;;;;;;;;;;;20.40;99.90;;;20.04;99.57;95831.06;10480148;28;2570;-71
2022/08/31 09:17:16;;;;;;;;;;;20.60;99.90;;;20.60;97.57;95826.09;10483990;28;2323;-72
2022/08/31 09:22:19;;;;;;;;;;;20.90;99.90;;;20.64;94.29;95821.56;10483738;28;2556;-73
2022/08/31 09:27:23;;;;;;;;;;;21.10;99.90;;;21.33;88.78;95820.00;10484037;28;2566;-71
2022/08/31 09:32:27;;;;;;;;;;;21.60;99.90;;;21.35;87.43;95827.88;10480867;28;2316;-70
2022/08/31 09:37:36;;;;;;;;;;;21.80;99.90;;;21.90;82.32;95821.00;10483547;28;2678;-73
2022/08/31 09:42:39;;;;;;;;;;;22.00;99.90;;;21.64;82.86;95819.44;10480953;28;2578;-71
2022/08/31 09:47:47;;;;;;;;;;;22.20;99.90;;;22.05;82.13;95806.59;10476159;28;2297;-72
2022/08/31 09:58:13;;;;;;;;;;;22.70;99.90;;;21.93;78.39;95821.09;10461025;28;2761;-72
2022/08/31 10:03:17;;;;;;;;;;;22.70;99.90;;;22.48;78.19;95813.31;10477135;28;2654;-70
2022/08/31 10:08:20;;;;;;;;;;;22.80;99.90;;;22.54;76.75;95817.41;10477290;28;2631;-75
2022/08/31 10:13:23;;;;;;;;;;;22.90;99.90;;;22.04;77.29;95826.91;10475273;28;2635;-72
2022/08/31 10:18:26;;;;;;;;;;;22.90;99.90;;;21.73;80.44;95816.56;10476838;28;2764;-70
2022/08/31 10:23:32;;;;;;;;;;;22.50;99.90;;;22.03;79.64;95817.09;10476201;28;2577;-74
2022/08/31 10:28:36;;;;;;;;;;;22.50;99.90;;;22.09;76.30;95821.22;10479043;28;2574;-76
2022/08/31 10:38:56;;;;;;;;;;;22.50;99.90;;;20.71;81.91;95840.13;10476881;28;2615;-72
2022/08/31 10:44:00;;;;;;;;;;;22.00;99.90;;;20.61;83.78;95837.81;10473841;28;2635;-71
2022/08/31 10:49:04;;;;;;;;;;;21.70;99.90;;;20.48;85.42;95837.75;10481390;28;2615;-72
2022/08/31 10:54:07;;;;;;;;;;;21.40;99.90;;;20.23;87.91;95857.84;10477990;28;2898;-70
2022/08/31 10:59:10;;;;;;;;;;;21.20;99.90;;;19.90;89.13;95857.78;10481604;28;2314;-71
2022/08/31 11:04:13;;;;;;;;;;;20.90;99.90;;;19.75;93.26;95859.16;10477094;28;2805;-70
2022/08/31 11:09:18;;;;;;;;;;;20.60;99.90;;;19.82;96.45;95855.91;10459362;28;2276;-72
2022/08/31 11:14:20;;;;;;;;;;;20.70;99.90;;;19.76;97.22;95859.94;10467648;28;2622;-76
2022/08/31 11:19:25;;;;;;;;;;;20.60;99.90;;;20.24;94.24;95859.47;10478099;28;2587;-72
2022/08/31 11:24:29;;;;;;;;;;;20.70;99.90;;;20.50;93.37;95868.28;10484004;28;2660;-72
2022/08/31 11:29:40;;;;;;;;;;;21.10;99.90;;;20.38;99.19;95868.19;10479655;28;2595;-73
2022/08/31 11:34:46;;;;;;;;;;;21.10;99.90;;;20.46;97.26;95861.88;10476675;28;2502;-72
2022/08/31 11:39:50;;;;;;;;;;;21.30;99.90;;;20.30;98.63;95858.13;10484516;28;2589;-71
2022/08/31 11:44:53;;;;;;;;;;;21.20;99.90;;;20.13;100.00;95867.25;10485148;28;2287;-73
2022/08/31 11:49:56;;;;;;;;;;;21.00;99.90;;;19.69;100.00;95874.09;10483206;28;2676;-71
2022/08/31 11:54:59;;;;;;;;;;;20.80;99.90;;;19.11;100.00;95889.22;10483125;28;2272;-71
2022/08/31 12:00:02;;;;;;;;;;;20.30;99.90;;;18.61;100.00;95890.56;10479679;28;2640;-72
2022/08/31 12:05:06;;;;;;;;;;;19.90;99.90;;;17.96;100.00;95907.03;10476025;28;2715;-71
2022/08/31 12:10:09;;;;;;;;;;;19.30;99.90;;;16.97;100.00;95911.88;10480133;28;2573;-70
2022/08/31 12:15:12;;;;;;;;;;;18.60;99.90;;;16.49;100.00;95926.88;10474985;28;2326;-69
2022/08/31 12:20:15;;;;;;;;;;;;;;;16.19;100.00;95928.38;10474365;28;2624;-71
2022/08/31 12:25:19;;;;;;;;;;;17.30;99.90;;;16.40;100.00;95933.31;10478680;28;2560;-74
2022/08/31 12:30:28;;;;;;;;;;;17.30;99.90;;;16.15;100.00;95932.78;10478689;28;2683;-72
2022/08/31 12:35:31;;;;;;;;;;;17.30;99.90;;;15.96;100.00;95945.66;10475149;28;2319;-72
2022/08/31 12:40:34;;;;;;;;;;;17.00;99.90;;;15.72;100.00;95953.25;10480702;28;2605;-70
2022/08/31 12:45:38;;;;;;;;;;;16.80;99.90;;;15.94;100.00;95956.81;10475509;28;2588;-71
2022/08/31 12:50:40;;;;;;;;;;;16.70;99.90;;;15.81;100.00;95952.22;10482423;28;2573;-72
2022/08/31 12:55:43;;;;;;;;;;;16.70;99.90;;;15.79;100.00;95949.03;10476261;28;2589;-72
2022/08/31 13:00:46;;;;;;;;;;;16.60;99.90;;;15.66;100.00;95947.91;10462427;28;2689;-73
2022/08/31 13:05:49;;;;;;;;;;;16.60;99.90;;;15.40;100.00;95957.63;10475949;28;2662;-72
2022/08/31 13:10:52;;;;;;;;;;;16.40;99.90;;;15.39;100.00;95958.69;10478565;28;2592;-73
2022/08/31 13:15:55;;;;;;;;;;;16.30;99.90;;;15.40;100.00;95977.38;10492952;28;2373;-73
2022/08/31 13:21:01;;;;;;;;;;;16.30;99.90;;;15.54;100.00;95965.75;10474037;28;2229;-73
2022/08/31 13:26:16;;;;;;;;;;;16.30;99.90;;;15.67;100.00;95960.38;10478090;28;2550;-71
2022/08/31 13:31:25;;;;;;;;;;;16.40;99.90;;;15.37;100.00;95961.72;10485459;28;2622;-71
2022/08/31 13:36:32;;;;;;;;;;;16.40;99.90;;;15.26;100.00;95957.56;10480931;28;3069;-72
2022/08/31 13:41:35;;;;;;;;;;;16.10;99.90;;;15.40;100.00;95953.00;10468544;28;2526;-71
2022/08/31 13:46:38;;;;;;;;;;;16.10;99.90;;;15.54;100.00;95950.28;10482905;28;2300;-75
2022/08/31 13:51:46;;;;;;;;;;;16.40;99.90;;;15.46;100.00;95942.88;10481281;28;2572;-73
2022/08/31 13:56:54;;;;;;;;;;;16.30;99.90;;;15.40;100.00;95944.06;10486166;28;2592;-72
2022/08/31 14:01:57;;;;;;;;;;;16.30;99.90;;;15.61;100.00;95939.84;10483097;28;2565;-71
2022/08/31 14:07:00;;;;;;;;;;;16.30;99.90;;;15.39;100.00;95939.72;10480055;28;2636;-74
2022/08/31 14:12:03;;;;;;;;;;;16.20;99.90;;;15.55;100.00;95940.25;10479122;28;2565;-73
2022/08/31 14:17:06;;;;;;;;;;;16.30;99.90;;;15.66;100.00;95930.88;10480752;28;2637;-73
2022/08/31 14:22:08;;;;;;;;;;;16.30;99.90;;;15.71;100.00;95927.22;10477668;28;2579;-74
2022/08/31 14:27:14;;;;;;;;;;;16.50;99.90;;;16.03;100.00;95931.69;10478022;28;2563;-72
2022/08/31 14:32:17;;;;;;;;;;;16.60;99.90;;;15.89;100.00;95923.59;10476763;28;2486;-74
2022/08/31 14:37:21;;;;;;;;;;;16.60;99.90;;;15.76;100.00;95919.00;10482964;28;2903;-72
2022/08/31 14:42:24;;;;;;;;;;;17.10;99.90;;;15.68;100.00;95928.66;10474462;28;2574;-72
2022/08/31 14:47:27;;;;;;;;;;;16.60;99.90;;;15.90;100.00;95926.03;10479533;28;2400;-73
2022/08/31 14:52:31;;;;;;;;;;;16.80;99.90;;;16.00;100.00;95925.00;10483163;28;2589;-75
2022/08/31 14:57:34;;;;;;;;;;;16.90;99.90;;;16.21;100.00;95926.13;10477639;28;2616;-72
2022/08/31 15:02:37;;;;;;;;;;;16.80;99.90;;;16.26;100.00;95930.66;10477469;28;2301;-69
2022/08/31 15:07:41;;;;;;;;;;;17.10;99.90;;;16.13;100.00;95934.22;10469449;28;2336;-72
2022/08/31 15:12:44;;;;;;;;;;;16.90;99.90;;;15.92;100.00;95939.28;10474446;28;2622;-71
2022/08/31 15:17:47;;;;;;;;;;;16.90;99.90;;;15.94;100.00;95935.13;10483051;28;2335;-72
2022/08/31 15:22:50;;;;;;;;;;;17.30;99.90;;;16.16;100.00;95937.13;10480985;28;2576;-74
2022/08/31 15:27:53;;;;;;;;;;;16.80;99.90;;;16.14;100.00;95944.75;10495457;28;2301;-73
2022/08/31 15:32:56;;;;;;;;;;;16.90;99.90;;;16.09;100.00;95942.13;10497064;28;2635;-73
2022/08/31 15:37:59;;;;;;;;;;;16.90;99.90;;;16.16;100.00;95929.00;10479314;28;2288;-75
2022/08/31 15:43:02;;;;;;;;;;;17.00;99.90;;;16.07;100.00;95930.78;10474877;28;2360;-73
2022/08/31 15:53:28;;;;;;;;;;;17.00;99.90;;;16.19;100.00;95930.28;10473117;28;2338;-72
2022/08/31 15:58:32;;;;;;;;;;;17.00;99.90;;;16.38;100.00;95921.97;10473516;28;2629;-68
2022/08/31 16:03:40;;;;;;;;;;;17.00;99.90;;;15.86;100.00;95926.94;10478026;28;2296;-67
2022/08/31 16:08:43;;;;;;;;;;;17.00;99.90;;;15.98;100.00;95913.66;10477796;28;2649;-71
2022/08/31 16:13:50;;;;;;;;;;;16.80;99.90;;;15.91;100.00;95921.41;10475996;28;2264;-69
2022/08/31 16:18:57;;;;;;;;;;;16.80;99.90;;;16.05;100.00;95911.31;10473855;28;2241;-69
2022/08/31 16:23:59;;;;;;;;;;;16.70;99.90;;;15.73;100.00;95908.78;10471618;28;2621;-70
2022/08/31 16:29:02;;;;;;;;;;;16.70;99.90;;;15.72;100.00;95912.59;10473165;28;2664;-74
2022/08/31 16:34:05;;;;;;;;;;;16.60;99.90;;;15.72;100.00;95915.31;10471624;28;2617;-72
2022/08/31 16:39:08;;;;;;;;;;;16.60;99.90;;;15.60;100.00;95922.00;10472015;28;2717;-71
2022/08/31 16:44:11;;;;;;;;;;;16.60;99.90;;;15.67;100.00;95918.91;10473747;28;2292;-73
2022/08/31 16:49:35;;;;;;;;;;;16.60;99.90;;;15.60;100.00;95923.91;10475435;28;2615;-73
2022/08/31 16:54:40;;;;;;;;;;;16.60;99.90;;;15.48;100.00;95929.81;10450668;28;2616;-73
2022/08/31 16:59:42;;;;;;;;;;;16.50;99.90;;;15.40;100.00;95928.63;10474153;28;2577;-74
2022/08/31 17:04:45;;;;;;;;;;;16.30;99.90;;;15.43;100.00;95927.22;10476372;28;2645;-73
2022/08/31 17:09:56;;;;;;;;;;;16.20;99.90;;;15.52;100.00;95925.38;10485307;28;2292;-72
2022/08/31 17:14:59;;;;;;;;;;;16.40;99.90;;;15.56;100.00;95915.56;10480681;28;2276;-71
2022/08/31 17:20:01;;;;;;;;;;;16.50;99.90;;;15.34;100.00;95935.25;10484022;28;2349;-72
2022/08/31 17:25:06;;;;;;;;;;;16.40;99.90;;;15.35;100.00;95941.44;10479651;28;2606;-72
2022/08/31 17:30:09;;;;;;;;;;;16.20;99.90;;;15.45;100.00;95945.84;10481049;28;2606;-69
2022/08/31 17:35:16;;;;;;;;;;;16.20;99.90;;;15.46;100.00;95961.84;10481301;28;2343;-69
2022/08/31 17:40:19;;;;;;;;;;;16.30;99.90;;;15.34;100.00;95951.50;10482705;28;2546;-69
2022/08/31 17:45:22;;;;;;;;;;;16.30;99.90;;;15.31;100.00;95949.38;10479691;28;2589;-73
2022/08/31 17:50:25;;;;;;;;;;;16.20;99.90;;;15.19;100.00;95950.94;10463458;28;2565;-75
2022/08/31 17:55:29;;;;;;;;;;;16.20;99.90;;;15.18;100.00;95963.69;10480828;28;2627;-70
2022/08/31 18:00:32;;;;;;;;;;;16.10;99.90;;;15.02;100.00;95955.03;10479180;28;2668;-69
2022/08/31 18:05:38;;;;;;;;;;;16.00;99.90;;;14.85;100.00;95965.59;10478043;28;2348;-69
2022/08/31 18:10:45;;;;;;;;;;;15.80;99.90;;;14.83;100.00;95967.81;10476988;28;2641;-69
2022/08/31 18:15:48;;;;;;;;;;;15.80;99.90;;;14.78;100.00;95970.59;10474627;28;2546;-70
2022/08/31 18:20:51;;;;;;;;;;;15.70;99.90;;;14.70;100.00;95980.19;10477106;28;2597;-70
2022/08/31 18:25:54;;;;;;;;;;;15.60;99.90;;;14.76;100.00;95972.78;10484202;28;2640;-72
2022/08/31 18:30:56;;;;;;;;;;;15.60;99.90;;;14.74;100.00;95983.91;10489897;28;2297;-70
2022/08/31 18:36:01;;;;;;;;;;;15.70;99.90;;;14.77;100.00;95985.22;10486979;28;2689;-77
2022/08/31 18:46:24;;;;;;;;;;;15.90;99.90;;;14.83;100.00;95987.56;10488182;28;2368;-70
2022/08/31 18:51:28;;;;;;;;;;;15.90;99.90;;;14.91;100.00;95979.88;10486001;28;2696;-71
2022/08/31 18:56:31;;;;;;;;;;;15.90;99.90;;;14.95;100.00;95987.09;10489559;28;2610;-70
2022/08/31 19:01:33;;;;;;;;;;;16.00;99.90;;;14.95;100.00;95997.94;10480679;28;2624;-72
2022/08/31 19:06:37;;;;;;;;;;;15.90;99.90;;;14.91;100.00;95994.19;10489128;28;2975;-75
2022/08/31 19:11:41;;;;;;;;;;;15.90;99.90;;;14.85;100.00;95998.09;10487198;28;2387;-71
2022/08/31 19:16:43;;;;;;;;;;;15.90;99.90;;;14.83;100.00;96001.09;10487068;28;2656;-73
2022/08/31 19:21:53;;;;;;;;;;;15.90;99.90;;;14.78;100.00;95993.06;10485943;28;2734;-74
2022/08/31 19:26:55;;;;;;;;;;;15.90;99.90;;;14.74;100.00;95991.22;10474932;28;2362;-76
2022/08/31 19:31:59;;;;;;;;;;;16.00;99.90;;;14.68;100.00;95997.81;10484030;28;2427;-74
2022/08/31 19:37:02;;;;;;;;;;;15.70;99.90;;;14.67;100.00;95990.78;10482510;28;2574;-75
2022/08/31 19:42:06;;;;;;;;;;;15.70;99.90;;;14.68;100.00;95992.41;10481845;28;2631;-76
2022/08/31 19:47:09;;;;;;;;;;;15.70;99.90;;;14.51;100.00;95988.31;10481651;28;2380;-71
2022/08/31 19:52:26;;;;;;;;;;;15.60;99.90;;;14.47;100.00;95983.78;10481274;28;2340;-71
2022/08/31 19:57:31;;;;;;;;;;;15.40;99.90;;;14.47;100.00;95981.88;10486136;28;2347;-71
2022/08/31 20:02:34;;;;;;;;;;;15.40;99.90;;;14.65;100.00;95982.97;10482153;28;2300;-71
2022/08/31 20:07:38;;;;;;;;;;;15.60;99.90;;;14.81;100.00;95970.00;10480990;28;2625;-71
2022/08/31 20:12:44;;;;;;;;;;;15.70;99.90;;;14.52;100.00;95962.88;10482253;28;2303;-71
2022/08/31 20:17:48;;;;;;;;;;;15.60;99.90;;;14.37;100.00;95954.13;10483622;28;2622;-70
2022/08/31 20:22:52;;;;;;;;;;;15.40;99.90;;;14.41;100.00;95966.00;10482428;28;2659;-69
2022/08/31 20:27:57;;;;;;;;;;;15.40;99.90;;;14.45;100.00;95967.03;10478432;28;2734;-69
2022/08/31 20:33:01;;;;;;;;;;;15.30;99.90;;;14.53;100.00;95975.31;10480649;28;2312;-76
2022/08/31 20:38:05;;;;;;;;;;;15.40;99.90;;;14.44;100.00;95970.81;10498435;28;2684;-73
2022/08/31 20:43:09;;;;;;;;;;;15.40;99.90;;;14.52;100.00;95973.69;10486038;28;2629;-71
2022/08/31 20:53:33;;;;;;;;;;;15.50;99.90;;;14.43;100.00;95986.22;10490233;28;2698;-72
2022/08/31 20:58:45;;;;;;;;;;;15.40;99.90;;;14.42;100.00;95979.22;10488572;28;2515;-76
2022/08/31 21:03:48;;;;;;;;;;;15.40;99.90;;;14.41;100.00;95972.19;10486395;28;2280;-74
2022/08/31 21:08:51;;;;;;;;;;;15.40;99.90;;;14.52;100.00;95981.81;10487008;28;2289;-74
2022/08/31 21:13:58;;;;;;;;;;;15.40;99.90;;;14.53;100.00;95986.13;10489687;28;2719;-72
2022/08/31 21:19:02;;;;;;;;;;;15.40;99.90;;;14.58;100.00;95988.75;10489214;28;2542;-76
2022/08/31 21:24:04;;;;;;;;;;;15.50;99.90;;;14.60;100.00;95985.75;10492029;28;2568;-75
2022/08/31 21:29:09;;;;;;;;;;;15.50;99.90;;;14.54;100.00;95982.31;10489991;28;2616;-73
2022/08/31 21:34:12;;;;;;;;;;;15.50;99.90;;;14.60;100.00;95975.72;10491503;28;2681;-76
2022/08/31 21:39:15;;;;;;;;;;;15.50;99.90;;;14.46;100.00;95979.44;10490775;28;2241;-74
2022/08/31 21:44:18;;;;;;;;;;;15.40;99.90;;;14.38;100.00;95977.38;10490700;28;2410;-76
2022/08/31 21:49:21;;;;;;;;;;;15.40;99.90;;;14.33;100.00;95964.75;10494476;28;2637;-75
2022/08/31 21:54:24;;;;;;;;;;;15.30;99.90;;;14.23;100.00;95967.59;10487750;28;2749;-75
2022/08/31 21:59:27;;;;;;;;;;;15.20;99.90;;;14.18;100.00;95967.66;10494682;28;2594;-74
2022/08/31 22:04:30;;;;;;;;;;;15.20;99.90;;;14.23;100.00;95967.59;10490126;28;2643;-73
2022/08/31 22:09:33;;;;;;;;;;;15.10;99.90;;;14.20;100.00;95970.91;10489281;28;2567;-74
2022/08/31 22:14:36;;;;;;;;;;;15.20;99.90;;;14.19;100.00;95975.50;10483596;28;2962;-75
2022/08/31 22:19:39;;;;;;;;;;;15.10;99.90;;;14.28;100.00;95981.06;10487938;28;2686;-73
2022/08/31 22:24:42;;;;;;;;;;;15.20;99.90;;;14.21;100.00;95978.72;10487575;28;2340;-71
2022/08/31 22:29:46;;;;;;;;;;;15.10;99.90;;;14.21;100.00;95983.31;10487464;28;2575;-73
2022/08/31 22:34:49;;;;;;;;;;;15.10;99.90;;;14.04;100.00;95976.50;10484360;28;2281;-74
2022/08/31 22:39:53;;;;;;;;;;;15.10;99.90;;;14.02;100.00;95984.09;10488024;28;2331;-74
2022/08/31 22:44:56;;;;;;;;;;;15.00;99.90;;;14.00;100.00;95972.78;10483491;28;2319;-74
2022/08/31 22:49:59;;;;;;;;;;;15.00;99.90;;;13.95;100.00;95970.13;10486062;28;3140;-73
2022/08/31 22:55:02;;;;;;;;;;;15.00;99.90;;;13.94;100.00;95968.53;10483263;28;2377;-74
2022/08/31 23:00:08;;;;;;;;;;;14.90;99.90;;;13.91;100.00;95960.19;10471356;28;2355;-73
2022/08/31 23:05:20;;;;;;;;;;;14.90;99.90;;;13.84;100.00;95959.75;10478453;28;2640;-73
2022/08/31 23:10:23;;;;;;;;;;;14.80;99.90;;;13.84;100.00;95960.53;10481842;28;3046;-72
2022/08/31 23:15:27;;;;;;;;;;;14.80;99.90;;;13.83;100.00;95950.03;10480261;28;2344;-74
2022/08/31 23:20:30;;;;;;;;;;;14.80;99.90;;;13.90;100.00;95956.69;10481833;28;2366;-75
2022/08/31 23:25:34;;;;;;;;;;;14.80;99.90;;;13.83;100.00;95953.53;10485712;28;2731;-74
2022/08/31 23:30:42;;;;;;;;;;;14.80;99.90;;;13.79;100.00;95950.59;10476628;28;2625;-74
2022/08/31 23:35:46;;;;;;;;;;;14.80;99.90;;;13.78;100.00;95942.78;10486883;28;2649;-73